createdAt,value
2018-04-14T00:00:32.580Z,90.70
2018-04-14T00:03:00.023Z,90.70
2018-04-14T00:05:27.447Z,90.70
2018-04-14T00:07:54.896Z,90.60
2018-04-14T00:10:23.239Z,90.90
2018-04-14T00:12:50.760Z,91.00
2018-04-14T00:15:18.190Z,91.10
2018-04-14T00:17:45.631Z,91.10
2018-04-14T00:20:13.063Z,91.10
2018-04-14T00:22:40.491Z,91.00
2018-04-14T00:25:07.924Z,91.10
2018-04-14T00:27:36.139Z,91.10
2018-04-14T00:30:04.331Z,91.40
2018-04-14T00:32:31.761Z,91.30
2018-04-14T00:34:59.191Z,91.40
2018-04-14T00:37:27.390Z,91.40
2018-04-14T00:39:54.823Z,91.40
2018-04-14T00:42:22.251Z,91.30
2018-04-14T00:44:49.692Z,91.40
2018-04-14T00:47:17.884Z,91.30
2018-04-14T00:49:45.321Z,91.20
2018-04-14T00:52:12.748Z,91.70
2018-04-14T00:54:40.177Z,91.50
2018-04-14T00:57:07.623Z,91.60
2018-04-14T00:59:35.085Z,91.40
2018-04-14T01:02:02.501Z,91.40
2018-04-14T01:04:30.723Z,91.30
2018-04-14T01:06:58.147Z,91.30
2018-04-14T01:09:25.586Z,91.10
2018-04-14T01:11:53.779Z,91.10
2018-04-14T01:14:21.252Z,91.10
2018-04-14T01:16:48.676Z,90.90
2018-04-14T01:19:16.147Z,90.80
2018-04-14T01:21:44.343Z,91.00
2018-04-14T01:24:11.803Z,90.90
2018-04-14T01:26:39.257Z,91.20
2018-04-14T01:29:06.696Z,91.00
2018-04-14T01:31:34.126Z,91.10
2018-04-14T01:34:01.547Z,90.90
2018-04-14T01:36:28.990Z,90.80
2018-04-14T01:38:56.407Z,91.10
2018-04-14T01:41:24.612Z,91.10
2018-04-14T01:43:52.055Z,91.10
2018-04-14T01:46:19.532Z,91.30
2018-04-14T01:48:46.966Z,91.30
2018-04-14T01:51:14.396Z,91.40
2018-04-14T01:53:41.831Z,91.50
2018-04-14T01:56:09.263Z,91.50
2018-04-14T01:58:36.712Z,91.50
2018-04-14T02:01:04.147Z,91.30
2018-04-14T02:03:32.353Z,91.10
2018-04-14T02:05:59.819Z,91.10
2018-04-14T02:08:27.264Z,91.00
2018-04-14T02:10:54.709Z,91.10
2018-04-14T02:13:22.128Z,91.20
2018-04-14T02:15:49.571Z,91.10
2018-04-14T02:18:17.043Z,91.30
2018-04-14T02:20:44.480Z,91.40
2018-04-14T02:23:11.913Z,91.50
2018-04-14T02:25:39.358Z,91.20
2018-04-14T02:28:06.786Z,91.10
2018-04-14T02:30:35.005Z,91.30
2018-04-14T02:33:02.440Z,91.30
2018-04-14T02:35:29.888Z,91.30
2018-04-14T02:37:58.074Z,91.20
2018-04-14T02:40:25.551Z,91.20
2018-04-14T02:42:52.975Z,91.30
2018-04-14T02:45:21.175Z,91.40
2018-04-14T02:47:48.607Z,91.40
2018-04-14T02:50:16.888Z,91.40
2018-04-14T02:52:45.096Z,91.60
2018-04-14T02:55:12.532Z,91.60
2018-04-14T02:57:39.955Z,91.60
2018-04-14T03:00:07.403Z,91.50
2018-04-14T03:02:34.820Z,91.50
2018-04-14T03:05:02.247Z,91.60
2018-04-14T03:07:29.671Z,91.60
2018-04-14T03:09:57.095Z,91.60
2018-04-14T03:12:24.535Z,91.60
2018-04-14T03:14:51.962Z,91.50
2018-04-14T03:17:20.163Z,91.70
2018-04-14T03:19:47.587Z,91.70
2018-04-14T03:22:15.015Z,91.70
2018-04-14T03:24:42.453Z,91.60
2018-04-14T03:27:09.884Z,91.50
2018-04-14T03:29:37.342Z,91.60
2018-04-14T03:32:05.547Z,91.60
2018-04-14T03:34:32.979Z,91.60
2018-04-14T03:37:00.410Z,91.80
2018-04-14T03:39:28.612Z,91.90
2018-04-14T03:41:56.063Z,91.90
2018-04-14T03:44:23.835Z,91.70
2018-04-14T03:46:51.268Z,91.70
2018-04-14T03:49:19.475Z,91.90
2018-04-14T03:51:46.921Z,91.80
2018-04-14T03:54:15.098Z,91.80
2018-04-14T03:56:42.530Z,91.80
2018-04-14T03:59:10.731Z,92.00
2018-04-14T04:01:38.168Z,92.00
2018-04-14T04:04:06.411Z,92.70
2018-04-14T04:06:33.863Z,92.30
2018-04-14T04:09:01.291Z,92.30
2018-04-14T04:11:28.735Z,92.30
2018-04-14T04:13:56.163Z,92.00
2018-04-14T04:16:23.904Z,92.00
2018-04-14T04:19:04.262Z,92.10
2018-04-14T04:21:43.564Z,92.10
2018-04-14T04:24:22.821Z,92.40
2018-04-14T04:26:50.255Z,92.70
2018-04-14T04:29:17.687Z,92.80
2018-04-14T04:31:45.907Z,93.30
2018-04-14T04:34:13.349Z,92.90
2018-04-14T04:36:40.815Z,92.90
2018-04-14T04:39:08.244Z,93.00
2018-04-14T04:41:35.711Z,93.20
2018-04-14T04:44:03.155Z,93.10
2018-04-14T04:46:30.629Z,93.20
2018-04-14T04:48:58.098Z,93.20
2018-04-14T04:51:26.259Z,93.00
2018-04-14T04:53:53.694Z,92.90
2018-04-14T04:56:21.891Z,93.10
2018-04-14T04:58:49.357Z,93.00
2018-04-14T05:01:16.807Z,92.80
2018-04-14T05:03:44.248Z,92.70
2018-04-14T05:06:12.451Z,93.00
2018-04-14T05:08:39.906Z,93.00
2018-04-14T05:11:07.342Z,92.90
2018-04-14T05:13:34.798Z,92.70
2018-04-14T05:16:02.236Z,92.60
2018-04-14T05:18:29.676Z,93.10
2018-04-14T05:20:57.140Z,92.70
2018-04-14T05:23:24.623Z,92.70
2018-04-14T05:25:52.815Z,91.80
2018-04-14T05:28:21.015Z,92.70
2018-04-14T05:30:48.480Z,92.60
2018-04-14T05:33:16.675Z,92.10
2018-04-14T05:35:44.199Z,92.10
2018-04-14T05:38:11.615Z,91.60
2018-04-14T05:40:39.812Z,91.30
2018-04-14T05:43:07.249Z,91.30
2018-04-14T05:45:35.462Z,90.50
2018-04-14T05:48:02.903Z,90.40
2018-04-14T05:50:30.340Z,90.20
2018-04-14T05:52:58.539Z,90.30
2018-04-14T05:55:25.974Z,90.30
2018-04-14T05:57:54.182Z,90.70
2018-04-14T06:00:21.620Z,90.70
2018-04-14T06:02:49.104Z,90.50
2018-04-14T06:05:16.527Z,90.20
2018-04-14T06:07:43.964Z,89.60
2018-04-14T06:10:11.410Z,89.20
2018-04-14T06:12:38.995Z,90.00
2018-04-14T06:15:07.191Z,89.10
2018-04-14T06:17:34.636Z,89.00
2018-04-14T06:20:02.078Z,87.50
2018-04-14T06:22:30.285Z,87.80
2018-04-14T06:24:57.704Z,87.70
2018-04-14T06:27:25.910Z,87.70
2018-04-14T06:29:53.345Z,87.70
2018-04-14T06:32:20.786Z,89.80
2018-04-14T06:34:48.223Z,90.00
2018-04-14T06:37:15.659Z,89.40
2018-04-14T06:39:43.084Z,89.40
2018-04-14T06:42:11.296Z,88.70
2018-04-14T06:44:38.862Z,88.70
2018-04-14T06:47:06.292Z,89.10
2018-04-14T06:49:33.720Z,88.40
2018-04-14T06:52:01.916Z,88.20
2018-04-14T06:54:29.352Z,88.10
2018-04-14T06:56:56.771Z,89.40
2018-04-14T06:59:24.231Z,88.80
2018-04-14T07:01:51.664Z,88.50
2018-04-14T07:04:19.139Z,88.70
2018-04-14T07:06:46.519Z,88.90
2018-04-14T07:09:13.985Z,88.60
2018-04-14T07:11:41.396Z,88.40
2018-04-14T07:14:08.847Z,87.50
2018-04-14T07:16:36.274Z,86.70
2018-04-14T07:19:04.490Z,86.60
2018-04-14T07:21:31.911Z,86.60
2018-04-14T07:24:00.116Z,83.20
2018-04-14T07:26:27.547Z,83.20
2018-04-14T07:28:55.749Z,82.50
2018-04-14T07:31:24.107Z,82.50
2018-04-14T07:33:51.548Z,82.10
2018-04-14T07:36:19.993Z,80.80
2018-04-14T07:38:47.428Z,80.70
2018-04-14T07:41:14.850Z,83.10
2018-04-14T07:43:43.079Z,81.80
2018-04-14T07:46:10.520Z,81.80
2018-04-14T07:48:37.947Z,82.30
2018-04-14T07:51:06.135Z,82.50
2018-04-14T07:53:33.567Z,82.60
2018-04-14T07:56:01.790Z,82.50
2018-04-14T07:58:29.207Z,82.50
2018-04-14T08:00:57.416Z,81.60
2018-04-14T08:03:24.851Z,81.60
2018-04-14T08:05:52.279Z,80.60
2018-04-14T08:08:20.487Z,80.50
2018-04-14T08:10:47.910Z,79.50
2018-04-14T08:13:16.131Z,77.00
2018-04-14T08:15:43.564Z,76.90
2018-04-14T08:18:11.000Z,76.30
2018-04-14T08:20:39.227Z,74.10
2018-04-14T08:48:11.532Z,70.90
2018-04-14T08:50:39.823Z,61.70
2018-04-14T08:53:08.004Z,56.10
2018-04-14T08:55:35.439Z,56.10
2018-04-14T08:58:03.628Z,51.60
2018-04-14T09:00:31.064Z,51.60
2018-04-14T09:02:59.260Z,52.60
2018-04-14T09:05:26.682Z,52.50
2018-04-14T09:07:54.118Z,49.70
2018-04-14T09:10:21.691Z,47.00
2018-04-14T09:12:49.120Z,47.90
2018-04-14T09:15:16.554Z,47.70
2018-04-14T09:17:44.002Z,47.50
2018-04-14T09:20:12.509Z,49.70
2018-04-14T09:22:40.065Z,49.60
2018-04-14T09:25:07.485Z,50.30
2018-04-14T09:27:35.675Z,51.10
2018-04-14T09:30:03.109Z,51.00
2018-04-14T09:32:30.538Z,52.90
2018-04-14T09:34:57.968Z,51.90
2018-04-14T09:37:25.398Z,52.30
2018-04-14T09:39:53.602Z,50.80
2018-04-14T09:42:21.030Z,50.70
2018-04-14T09:44:49.220Z,52.50
2018-04-14T09:47:16.659Z,52.40
2018-04-14T09:49:44.862Z,54.00
2018-04-14T09:52:12.287Z,53.90
2018-04-14T09:54:40.494Z,52.60
2018-04-14T09:57:07.919Z,52.60
2018-04-14T09:59:36.123Z,50.80
2018-04-14T10:02:03.579Z,50.70
2018-04-14T10:04:31.007Z,50.40
2018-04-14T10:06:59.202Z,55.30
2018-04-14T10:09:26.642Z,55.20
2018-04-14T10:11:54.839Z,55.80
2018-04-14T10:14:22.310Z,55.70
2018-04-14T10:16:49.776Z,54.70
2018-04-14T10:19:18.003Z,56.90
2018-04-14T10:21:45.439Z,56.80
2018-04-14T10:24:13.633Z,57.00
2018-04-14T10:26:41.920Z,57.00
2018-04-14T10:29:10.137Z,56.80
2018-04-14T10:31:37.585Z,56.80
2018-04-14T10:34:05.014Z,57.10
2018-04-14T10:36:39.008Z,56.70
2018-04-14T10:39:07.227Z,58.10
2018-04-14T10:41:34.669Z,58.10
2018-04-14T10:44:02.480Z,57.70
2018-04-14T10:46:29.915Z,55.90
2018-04-14T10:48:57.347Z,55.10
2018-04-14T10:51:26.617Z,53.70
2018-04-14T10:57:21.915Z,53.00
2018-04-14T10:59:57.863Z,53.00
2018-04-14T11:02:25.297Z,52.20
2018-04-14T11:04:52.733Z,54.20
2018-04-14T11:07:20.945Z,54.10
2018-04-14T11:09:48.367Z,54.00
2018-04-14T11:12:16.571Z,54.70
2018-04-14T11:14:44.011Z,54.70
2018-04-14T11:17:11.448Z,55.50
2018-04-14T11:19:38.875Z,56.80
2018-04-14T11:22:06.339Z,56.70
2018-04-14T11:24:33.774Z,58.20
2018-04-14T11:27:01.222Z,57.70
2018-04-14T11:29:28.655Z,57.90
2018-04-14T11:31:56.851Z,57.90
2018-04-14T11:34:24.858Z,57.90
2018-04-14T11:36:52.296Z,60.50
2018-04-14T11:39:19.739Z,59.20
2018-04-14T11:41:47.190Z,58.00
2018-04-14T11:44:14.626Z,55.10
2018-04-14T11:46:42.185Z,56.10
2018-04-14T11:49:10.387Z,54.70
2018-04-14T11:51:37.811Z,54.70
2018-04-14T11:54:06.023Z,50.20
2018-04-14T11:56:33.461Z,50.20
2018-04-14T11:59:00.888Z,50.80
2018-04-14T12:01:29.092Z,48.00
2018-04-14T12:03:56.547Z,47.60
2018-04-14T12:06:24.933Z,47.20
2018-04-14T12:08:53.110Z,45.30
2018-04-14T12:11:20.538Z,45.30
2018-04-14T12:13:48.753Z,45.30
2018-04-14T12:16:16.242Z,45.30
2018-04-14T12:18:43.654Z,40.90
2018-04-14T12:21:11.091Z,42.50
2018-04-14T12:23:38.548Z,43.60
2018-04-14T12:26:06.742Z,41.70
2018-04-14T12:28:34.187Z,41.60
2018-04-14T12:31:02.392Z,41.60
2018-04-14T12:33:29.827Z,41.60
2018-04-14T12:35:57.279Z,40.40
2018-04-14T12:38:25.262Z,38.60
2018-04-14T12:40:52.692Z,38.30
2018-04-14T12:43:20.123Z,39.00
2018-04-14T12:45:49.090Z,37.10
2018-04-14T12:48:16.503Z,37.00
2018-04-14T12:50:44.709Z,36.40
2018-04-14T12:53:12.169Z,36.40
2018-04-14T12:55:39.599Z,37.50
2018-04-14T12:58:07.806Z,36.60
2018-04-14T13:00:35.270Z,36.60
2018-04-14T13:03:02.713Z,36.70
2018-04-14T13:05:30.179Z,35.60
2018-04-14T13:07:57.604Z,34.80
2018-04-14T13:10:25.812Z,37.10
2018-04-14T13:12:53.276Z,37.10
2018-04-14T13:15:20.713Z,38.20
2018-04-14T13:17:48.149Z,38.00
2018-04-14T13:20:16.347Z,37.20
2018-04-14T13:22:43.867Z,37.10
2018-04-14T13:25:11.300Z,36.60
2018-04-14T13:27:38.754Z,36.90
2018-04-14T13:30:06.183Z,35.00
2018-04-14T13:32:33.645Z,34.60
2018-04-14T13:35:01.080Z,33.70
2018-04-14T13:37:28.521Z,34.80
2018-04-14T13:39:56.719Z,39.20
2018-04-14T13:42:25.076Z,39.20
2018-04-14T13:44:53.279Z,37.50
2018-04-14T13:47:20.737Z,37.40
2018-04-14T13:49:48.166Z,37.90
2018-04-14T13:52:16.361Z,41.40
2018-04-14T13:54:43.838Z,41.40
2018-04-14T13:57:11.256Z,41.90
2018-04-14T13:59:39.455Z,40.40
2018-04-14T14:02:06.929Z,40.20
2018-04-14T14:04:34.366Z,39.50
2018-04-14T14:07:01.791Z,40.50
2018-04-14T14:09:29.223Z,38.00
2018-04-14T14:11:56.676Z,37.70
2018-04-14T14:14:25.035Z,37.10
2018-04-14T14:16:52.503Z,36.20
2018-04-14T14:19:19.931Z,36.80
2018-04-14T14:21:47.362Z,37.50
2018-04-14T14:24:15.583Z,37.20
2018-04-14T14:26:43.167Z,36.80
2018-04-14T14:29:10.600Z,37.30
2018-04-14T14:31:38.057Z,35.70
2018-04-14T14:34:05.474Z,37.70
2018-04-14T14:36:33.687Z,37.90
2018-04-14T14:39:01.114Z,37.20
2018-04-14T14:41:29.321Z,37.50
2018-04-14T14:43:56.778Z,37.40
2018-04-14T14:46:25.403Z,35.40
2018-04-14T14:48:52.836Z,35.50
2018-04-14T14:51:20.270Z,34.70
2018-04-14T14:53:47.706Z,33.50
2018-04-14T14:56:15.928Z,35.80
2018-04-14T14:58:43.454Z,35.80
2018-04-14T15:01:10.895Z,36.20
2018-04-14T15:03:39.096Z,34.90
2018-04-14T15:06:06.544Z,34.80
2018-04-14T15:08:33.974Z,36.40
2018-04-14T15:11:02.200Z,37.10
2018-04-14T15:13:29.640Z,37.00
2018-04-14T15:15:57.068Z,37.20
2018-04-14T15:18:25.320Z,36.90
2018-04-14T15:20:52.749Z,37.20
2018-04-14T15:23:20.193Z,36.80
2018-04-14T15:25:47.624Z,37.30
2018-04-14T15:28:15.829Z,38.50
2018-04-14T15:30:43.400Z,38.50
2018-04-14T15:33:10.837Z,39.30
2018-04-14T15:35:38.304Z,38.80
2018-04-14T15:38:05.746Z,39.80
2018-04-14T15:40:33.177Z,40.20
2018-04-14T15:43:00.626Z,41.50
2018-04-14T15:45:28.069Z,42.70
2018-04-14T15:47:55.496Z,41.80
2018-04-14T15:50:23.011Z,41.80
2018-04-14T15:52:50.510Z,42.40
2018-04-14T15:55:17.949Z,43.20
2018-04-14T15:57:45.389Z,42.50
2018-04-14T16:00:13.587Z,43.40
2018-04-14T16:02:41.035Z,43.40
2018-04-14T16:05:08.466Z,43.50
2018-04-14T16:07:35.911Z,43.80
2018-04-14T16:10:03.344Z,44.20
2018-04-14T16:12:30.787Z,44.30
2018-04-14T16:14:58.223Z,46.00
2018-04-14T16:17:25.676Z,46.50
2018-04-14T16:19:53.119Z,45.90
2018-04-14T16:22:21.331Z,45.20
2018-04-14T16:24:48.763Z,45.20
2018-04-14T16:27:17.045Z,45.70
2018-04-14T16:29:45.468Z,46.10
2018-04-14T16:32:12.896Z,46.10
2018-04-14T16:34:40.340Z,46.10
2018-04-14T16:37:08.515Z,46.40
2018-04-14T16:39:35.986Z,46.40
2018-04-14T16:42:06.667Z,46.90
2018-04-14T16:44:34.107Z,46.40
2018-04-14T16:47:01.556Z,47.60
2018-04-14T16:49:28.980Z,47.20
2018-04-14T16:51:56.427Z,48.50
2018-04-14T16:54:25.605Z,48.70
2018-04-14T16:56:53.031Z,48.70
2018-04-14T16:59:20.471Z,49.40
2018-04-14T17:01:47.924Z,49.90
2018-04-14T17:04:15.385Z,49.50
2018-04-14T17:06:42.831Z,50.00
2018-04-14T17:09:10.264Z,50.00
2018-04-14T17:11:38.886Z,50.10
2018-04-14T17:14:06.384Z,50.10
2018-04-14T17:16:33.863Z,50.40
2018-04-14T17:19:01.283Z,50.20
2018-04-14T17:21:28.720Z,51.00
2018-04-14T17:23:56.160Z,50.50
2018-04-14T17:26:23.630Z,50.50
2018-04-14T17:28:51.045Z,51.40
2018-04-14T17:31:19.248Z,51.00
2018-04-14T17:33:46.747Z,50.60
2018-04-14T17:36:14.184Z,51.00
2018-04-14T17:38:41.633Z,50.90
2018-04-14T17:41:09.066Z,51.60
2018-04-14T17:43:37.271Z,52.60
2018-04-14T17:46:04.737Z,52.60
2018-04-14T17:48:32.178Z,51.90
2018-04-14T17:50:59.679Z,51.30
2018-04-14T17:53:27.267Z,50.90
2018-04-14T17:55:55.466Z,52.60
2018-04-14T17:58:23.790Z,52.60
2018-04-14T18:00:51.222Z,52.90
2018-04-14T18:03:18.668Z,53.90
2018-04-14T18:05:46.139Z,53.70
2018-04-14T18:08:14.343Z,53.80
2018-04-14T18:10:41.780Z,54.20
2018-04-14T18:13:09.988Z,55.10
2018-04-14T18:15:37.420Z,55.00
2018-04-14T18:18:04.839Z,55.10
2018-04-14T18:20:32.287Z,56.00
2018-04-14T18:22:59.720Z,56.10
2018-04-14T18:25:27.151Z,56.50
2018-04-14T18:27:54.596Z,56.50
2018-04-14T18:30:22.044Z,56.40
2018-04-14T18:32:49.472Z,57.10
2018-04-14T18:35:16.931Z,57.50
2018-04-14T18:37:44.372Z,57.90
2018-04-14T18:40:12.581Z,58.80
2018-04-14T18:42:40.021Z,58.70
2018-04-14T18:45:07.459Z,58.70
2018-04-14T18:47:35.654Z,59.80
2018-04-14T18:50:03.102Z,59.80
2018-04-14T18:52:31.293Z,60.00
2018-04-14T18:54:58.732Z,59.90
2018-04-14T18:57:26.970Z,60.50
2018-04-14T18:59:54.415Z,60.30
2018-04-14T19:02:22.619Z,61.00
2018-04-14T19:04:50.043Z,61.00
2018-04-14T19:07:17.467Z,61.90
2018-04-14T19:09:44.907Z,63.10
2018-04-14T19:12:13.103Z,63.40
2018-04-14T19:14:40.543Z,63.40
2018-04-14T19:17:08.742Z,65.10
2018-04-14T19:19:36.180Z,65.10
2018-04-14T19:22:04.384Z,65.80
2018-04-14T19:24:31.855Z,65.80
2018-04-14T19:26:59.297Z,66.30
2018-04-14T19:29:26.840Z,66.30
2018-04-14T19:31:54.264Z,67.30
2018-04-14T19:34:21.729Z,68.30
2018-04-14T19:36:49.177Z,68.40
2018-04-14T19:39:16.595Z,69.20
2018-04-14T19:41:44.049Z,68.90
2018-04-14T19:44:11.538Z,69.10
2018-04-14T19:46:38.969Z,69.30
2018-04-14T19:49:06.590Z,71.10
2018-04-14T19:51:34.787Z,72.20
2018-04-14T19:54:02.249Z,72.10
2018-04-14T19:56:29.707Z,72.80
2018-04-14T19:58:57.136Z,73.90
2018-04-14T20:01:26.296Z,75.10
2018-04-14T20:03:53.708Z,75.00
2018-04-14T20:06:21.157Z,75.00
2018-04-14T20:08:49.356Z,75.90
2018-04-14T20:11:16.791Z,75.90
2018-04-14T20:13:44.223Z,75.80
2018-04-14T20:16:12.449Z,75.70
2018-04-14T20:18:39.944Z,75.60
2018-04-14T20:21:07.396Z,76.30
2018-04-14T20:23:34.819Z,76.50
2018-04-14T20:26:02.335Z,77.10
2018-04-14T20:28:29.774Z,77.60
2018-04-14T20:30:57.237Z,78.60
2018-04-14T20:33:24.657Z,78.80
2018-04-14T20:35:52.106Z,79.10
2018-04-14T20:38:19.573Z,79.30
2018-04-14T20:40:47.091Z,79.70
2018-04-14T20:43:15.324Z,79.90
2018-04-14T20:45:42.764Z,79.90
2018-04-14T20:48:10.216Z,80.40
2018-04-14T20:50:37.673Z,80.00
2018-04-14T20:53:05.103Z,79.70
2018-04-14T20:55:32.535Z,80.10
2018-04-14T20:57:59.974Z,80.40
2018-04-14T21:00:27.523Z,80.30
2018-04-14T21:02:54.959Z,80.10
2018-04-14T21:05:22.411Z,79.60
2018-04-14T21:07:49.877Z,79.70
2018-04-14T21:10:17.345Z,80.20
2018-04-14T21:12:44.767Z,79.90
2018-04-14T21:15:12.197Z,79.90
2018-04-14T21:17:39.640Z,80.10
2018-04-14T21:20:07.100Z,80.50
2018-04-14T21:22:34.538Z,79.70
2018-04-14T21:25:02.003Z,79.80
2018-04-14T21:27:29.457Z,79.90
2018-04-14T21:29:56.920Z,79.90
2018-04-14T21:32:24.355Z,80.00
2018-04-14T21:34:51.786Z,80.00
2018-04-14T21:37:19.859Z,80.50
2018-04-14T21:39:47.459Z,80.80
2018-04-14T21:42:14.899Z,80.90
2018-04-14T21:44:42.332Z,80.90
2018-04-14T21:47:09.775Z,81.30
2018-04-14T21:49:37.974Z,81.40
2018-04-14T21:52:05.439Z,81.30
2018-04-14T21:54:32.867Z,82.10
2018-04-14T21:57:01.081Z,81.80
2018-04-14T21:59:28.498Z,81.80
2018-04-14T22:01:56.716Z,82.00
2018-04-14T22:04:24.160Z,81.90
2018-04-14T22:06:51.604Z,81.30
2018-04-14T22:09:19.047Z,81.80
2018-04-14T22:11:47.279Z,82.60
2018-04-14T22:14:27.454Z,82.40
2018-04-14T22:16:54.897Z,82.70
2018-04-14T22:19:23.191Z,83.10
2018-04-14T22:21:50.623Z,82.80
2018-04-14T22:24:18.058Z,82.90
2018-04-14T22:26:45.499Z,82.50
2018-04-14T22:29:12.927Z,82.80
2018-04-14T22:31:40.371Z,83.30
2018-04-14T22:34:07.825Z,83.90
2018-04-14T22:36:35.267Z,85.00
2018-04-14T22:39:02.711Z,84.30
2018-04-14T22:41:30.149Z,84.20
2018-04-14T22:43:57.633Z,84.50
2018-04-14T22:46:25.238Z,85.00
2018-04-14T22:48:52.667Z,84.90
2018-04-14T22:51:20.232Z,84.70
2018-04-14T22:53:47.643Z,85.90
2018-04-14T22:56:15.114Z,85.70
2018-04-14T22:58:42.557Z,86.40
2018-04-14T23:01:10.007Z,86.70
2018-04-14T23:03:38.266Z,86.30
2018-04-14T23:06:07.638Z,85.90
2018-04-14T23:08:35.100Z,85.90
2018-04-14T23:11:02.523Z,85.90
2018-04-14T23:13:29.963Z,86.10
2018-04-14T23:15:57.409Z,86.30
2018-04-14T23:18:26.550Z,87.10
2018-04-14T23:20:53.974Z,87.10
2018-04-14T23:23:21.417Z,86.60
2018-04-14T23:25:49.624Z,87.10
2018-04-14T23:28:17.059Z,87.10
2018-04-14T23:30:44.506Z,86.60
2018-04-14T23:33:12.711Z,87.30
2018-04-14T23:35:40.239Z,87.10
2018-04-14T23:38:08.447Z,87.50
2018-04-14T23:40:35.880Z,87.50
2018-04-14T23:43:03.320Z,87.90
2018-04-14T23:45:31.515Z,88.20
2018-04-14T23:47:58.947Z,88.00
2018-04-14T23:50:27.143Z,88.80
2018-04-14T23:52:55.345Z,88.20
2018-04-14T23:55:22.792Z,88.10
2018-04-14T23:57:50.216Z,88.00
